Terminal Aerodrome Forecast
Issued by NWS Grand Forks, ND

Home | Current Version | Previous Version | Graphics & Text | Print | Product List | Glossary On
Versions: 1 2 3 4 5 6 7 8 9 10 11 12 13 14 15
672
FTUS43 KFGF 211120
TAFFAR
TAF
KFAR 211120Z 2112/2212 15010KT P6SM VCSH BKN100
     FM211500 16011KT P6SM BKN250
     FM212000 19013G21KT P6SM SCT150
     FM220200 25008KT P6SM SCT200=

USA.gov is the U.S. government's official web portal to all federal, state and local government web resources and services.